createdAt,value
2018-06-10T00:01:28.223Z,22.48
2018-06-10T00:04:01.965Z,22.75
2018-06-10T00:06:35.612Z,21.62
2018-06-10T00:09:09.429Z,20.92
2018-06-10T00:11:43.317Z,19.83
2018-06-10T00:14:17.088Z,21.27
2018-06-10T00:16:50.758Z,22.00
2018-06-10T00:19:24.589Z,20.58
2018-06-10T00:21:58.290Z,23.08
2018-06-10T00:24:32.916Z,22.62
2018-06-10T00:27:06.716Z,21.25
2018-06-10T00:29:40.496Z,22.08
2018-06-10T00:32:14.233Z,21.60
2018-06-10T00:34:48.856Z,23.20
2018-06-10T00:37:22.445Z,22.83
2018-06-10T00:39:56.233Z,22.30
2018-06-10T00:42:30.753Z,23.17
2018-06-10T00:45:04.579Z,23.40
2018-06-10T00:47:38.397Z,23.45
2018-06-10T00:50:12.153Z,23.83
2018-06-10T00:52:45.868Z,23.40
2018-06-10T00:55:19.659Z,22.87
2018-06-10T00:57:53.303Z,24.42
2018-06-10T01:00:27.043Z,23.08
2018-06-10T01:03:00.876Z,23.33
2018-06-10T01:05:35.337Z,23.23
2018-06-10T01:08:09.074Z,24.30
2018-06-10T01:10:42.691Z,24.00
2018-06-10T01:13:17.239Z,24.10
2018-06-10T01:15:51.091Z,25.05
2018-06-10T01:18:24.929Z,25.25
2018-06-10T01:20:58.767Z,25.00
2018-06-10T01:23:32.498Z,24.75
2018-06-10T01:26:06.137Z,25.92
2018-06-10T01:28:39.911Z,27.60
2018-06-10T01:31:13.600Z,25.25
2018-06-10T01:33:47.306Z,26.83
2018-06-10T01:36:21.712Z,28.48
2018-06-10T01:38:55.423Z,28.35
2018-06-10T01:41:29.122Z,27.35
2018-06-10T01:44:03.632Z,25.62
2018-06-10T01:46:37.495Z,26.20
2018-06-10T01:49:11.259Z,27.65
2018-06-10T01:51:45.023Z,27.60
2018-06-10T01:54:18.843Z,27.77
2018-06-10T01:56:52.574Z,28.62
2018-06-10T01:59:26.375Z,28.55
2018-06-10T02:02:00.114Z,29.52
2018-06-10T02:04:34.499Z,28.15
2018-06-10T02:07:08.151Z,27.02
2018-06-10T02:09:41.823Z,27.50
2018-06-10T02:12:15.661Z,28.35
2018-06-10T02:14:49.436Z,27.75
2018-06-10T02:17:23.951Z,25.80
2018-06-10T02:19:57.773Z,27.87
2018-06-10T02:22:31.548Z,27.75
2018-06-10T02:25:05.252Z,25.42
2018-06-10T02:27:39.123Z,26.05
2018-06-10T02:30:13.692Z,25.30
2018-06-10T02:32:47.537Z,25.23
2018-06-10T02:35:21.267Z,25.17
2018-06-10T02:37:54.981Z,26.02
2018-06-10T02:40:29.628Z,28.10
2018-06-10T02:43:04.152Z,41.13
2018-06-10T02:45:37.919Z,28.58
2018-06-10T02:48:11.747Z,25.77
2018-06-10T02:50:46.288Z,27.23
2018-06-10T02:53:20.040Z,27.90
2018-06-10T02:55:53.805Z,26.40
2018-06-10T02:58:27.552Z,25.55
2018-06-10T03:01:01.323Z,28.15
2018-06-10T03:03:35.040Z,27.13
2018-06-10T03:06:08.885Z,29.63
2018-06-10T03:08:42.548Z,27.58
2018-06-10T03:11:16.391Z,27.37
2018-06-10T03:13:50.271Z,26.40
2018-06-10T03:16:23.939Z,26.85
2018-06-10T03:18:57.735Z,25.60
2018-06-10T03:21:31.380Z,25.80
2018-06-10T03:24:05.180Z,26.60
2018-06-10T03:26:39.040Z,25.88
2018-06-10T03:29:13.481Z,25.02
2018-06-10T03:31:47.139Z,26.00
2018-06-10T03:34:20.886Z,25.12
2018-06-10T03:36:54.596Z,25.52
2018-06-10T03:39:28.319Z,26.40
2018-06-10T03:42:02.127Z,26.62
2018-06-10T03:44:35.924Z,25.60
2018-06-10T03:47:09.615Z,26.12
2018-06-10T03:49:43.372Z,27.35
2018-06-10T03:52:17.052Z,26.92
2018-06-10T03:54:50.777Z,26.15
2018-06-10T03:57:25.447Z,26.45
2018-06-10T03:59:59.152Z,26.62
2018-06-10T04:02:32.990Z,25.95
2018-06-10T04:05:06.704Z,26.08
2018-06-10T04:07:40.493Z,25.65
2018-06-10T04:10:14.292Z,28.67
2018-06-10T04:12:48.112Z,26.42
2018-06-10T04:15:22.737Z,27.98
2018-06-10T04:17:57.236Z,27.45
2018-06-10T04:20:31.004Z,27.85
2018-06-10T04:23:04.763Z,28.00
2018-06-10T04:25:38.481Z,27.85
2018-06-10T04:28:12.300Z,27.23
2018-06-10T04:30:46.104Z,28.35
2018-06-10T04:33:19.844Z,28.58
2018-06-10T04:35:53.561Z,25.90
2018-06-10T04:38:27.901Z,25.05
2018-06-10T04:41:03.175Z,26.40
2018-06-10T04:43:36.860Z,27.23
2018-06-10T04:46:10.600Z,27.10
2018-06-10T04:48:44.220Z,27.35
2018-06-10T04:51:17.952Z,27.98
2018-06-10T04:53:51.807Z,27.58
2018-06-10T04:56:25.555Z,27.08
2018-06-10T04:58:59.343Z,26.40
2018-06-10T05:01:33.139Z,26.98
2018-06-10T05:04:06.937Z,28.00
2018-06-10T05:06:41.399Z,26.80
2018-06-10T05:09:15.293Z,26.05
2018-06-10T05:11:49.935Z,24.85
2018-06-10T05:14:24.491Z,23.60
2018-06-10T05:16:58.968Z,24.80
2018-06-10T05:19:32.745Z,23.43
2018-06-10T05:22:06.457Z,24.07
2018-06-10T05:24:40.204Z,24.30
2018-06-10T05:27:13.932Z,25.77
2018-06-10T05:29:47.726Z,26.47
2018-06-10T05:32:21.535Z,26.43
2018-06-10T05:34:56.154Z,26.10
2018-06-10T05:37:30.736Z,26.57
2018-06-10T05:40:04.370Z,25.20
2018-06-10T05:42:38.083Z,25.03
2018-06-10T05:45:11.844Z,27.50
2018-06-10T05:47:45.735Z,26.00
2018-06-10T05:50:20.325Z,26.45
2018-06-10T05:52:54.241Z,25.10
2018-06-10T05:55:27.906Z,25.07
2018-06-10T05:58:01.800Z,24.77
2018-06-10T06:00:35.729Z,22.90
2018-06-10T06:03:09.596Z,25.87
2018-06-10T06:05:43.323Z,25.62
2018-06-10T06:08:17.218Z,25.08
2018-06-10T06:10:50.907Z,25.70
2018-06-10T06:13:24.666Z,23.20
2018-06-10T06:15:58.498Z,25.90
2018-06-10T06:18:32.188Z,24.87
2018-06-10T06:21:06.861Z,24.80
2018-06-10T06:23:40.627Z,24.83
2018-06-10T06:26:15.279Z,24.47
2018-06-10T06:28:48.978Z,24.87
2018-06-10T06:31:23.460Z,24.73
2018-06-10T06:33:57.203Z,25.75
2018-06-10T06:36:31.703Z,25.73
2018-06-10T06:39:05.440Z,25.40
2018-06-10T06:41:39.165Z,26.40
2018-06-10T06:44:12.903Z,25.80
2018-06-10T06:46:46.619Z,23.67
2018-06-10T06:49:20.481Z,24.83
2018-06-10T06:51:54.153Z,24.33
2018-06-10T06:54:28.016Z,25.17
2018-06-10T06:57:01.893Z,25.50
2018-06-10T06:59:35.567Z,23.63
2018-06-10T07:02:09.359Z,23.30
2018-06-10T07:04:43.158Z,25.33
2018-06-10T07:07:16.963Z,26.13
2018-06-10T07:09:50.757Z,26.40
2018-06-10T07:12:24.568Z,23.60
2018-06-10T07:14:58.415Z,23.80
2018-06-10T07:17:32.956Z,23.47
2018-06-10T07:20:06.761Z,24.13
2018-06-10T07:22:40.525Z,24.53
2018-06-10T07:25:14.292Z,23.10
2018-06-10T07:27:48.152Z,23.20
2018-06-10T07:30:21.977Z,23.00
2018-06-10T07:32:55.740Z,23.20
2018-06-10T07:35:29.352Z,23.03
2018-06-10T07:38:03.171Z,24.47
2018-06-10T07:40:37.697Z,24.00
2018-06-10T07:43:12.294Z,22.17
2018-06-10T07:45:46.785Z,22.20
2018-06-10T07:48:21.450Z,21.40
2018-06-10T07:50:55.291Z,21.83
2018-06-10T07:53:29.039Z,20.90
2018-06-10T07:56:02.863Z,21.07
2018-06-10T07:58:38.292Z,20.83
2018-06-10T08:01:11.887Z,22.10
2018-06-10T08:03:45.739Z,18.87
2018-06-10T08:06:19.534Z,20.93
2018-06-10T08:08:53.456Z,18.70
2018-06-10T08:11:27.044Z,19.80
2018-06-10T08:14:00.877Z,20.43
2018-06-10T08:16:35.452Z,18.70
2018-06-10T08:19:09.281Z,19.63
2018-06-10T08:21:43.071Z,21.90
2018-06-10T08:24:16.813Z,20.37
2018-06-10T08:26:50.634Z,19.83
2018-06-10T08:29:24.438Z,20.33
2018-06-10T08:31:58.999Z,20.73
2018-06-10T08:34:33.538Z,20.97
2018-06-10T08:37:07.343Z,21.20
2018-06-10T08:39:41.756Z,21.20
2018-06-10T08:42:16.260Z,20.60
2018-06-10T08:44:50.113Z,22.00
2018-06-10T08:47:23.871Z,21.13
2018-06-10T08:49:58.438Z,22.77
2018-06-10T08:52:32.232Z,23.07
2018-06-10T08:55:06.090Z,19.77
2018-06-10T08:57:39.822Z,22.30
2018-06-10T09:00:13.475Z,21.70
2018-06-10T09:02:48.113Z,21.30
2018-06-10T09:05:21.812Z,22.03
2018-06-10T09:07:55.671Z,22.00
2018-06-10T09:10:29.485Z,22.87
2018-06-10T09:13:04.001Z,20.73
2018-06-10T09:15:37.824Z,20.97
2018-06-10T09:18:11.651Z,21.20
2018-06-10T09:20:46.308Z,21.90
2018-06-10T09:23:19.959Z,21.20
2018-06-10T09:25:53.785Z,22.50
2018-06-10T09:28:27.597Z,22.57
2018-06-10T09:31:01.392Z,21.83
2018-06-10T09:33:35.316Z,20.70
2018-06-10T09:36:09.869Z,21.97
2018-06-10T09:38:43.606Z,22.73
2018-06-10T09:41:18.094Z,22.37
2018-06-10T09:43:51.822Z,22.53
2018-06-10T09:46:25.696Z,20.83
2018-06-10T09:49:00.369Z,22.33
2018-06-10T09:51:34.002Z,21.60
2018-06-10T09:54:07.864Z,22.57
2018-06-10T09:56:41.598Z,23.10
2018-06-10T09:59:15.437Z,20.33
2018-06-10T10:01:49.232Z,19.43
2018-06-10T10:04:22.915Z,19.80
2018-06-10T10:06:56.701Z,19.53
2018-06-10T10:09:30.413Z,19.30
2018-06-10T10:12:04.240Z,19.60
2018-06-10T10:14:38.047Z,17.73
2018-06-10T10:17:11.604Z,19.40
2018-06-10T10:19:45.432Z,18.37
2018-06-10T10:22:19.156Z,18.53
2018-06-10T10:24:53.743Z,19.10
2018-06-10T10:27:28.372Z,17.33
2018-06-10T10:30:02.134Z,15.90
2018-06-10T10:32:35.912Z,19.37
2018-06-10T10:35:09.547Z,16.73
2018-06-10T10:37:43.368Z,14.20
2018-06-10T10:40:17.168Z,14.90
2018-06-10T10:42:51.120Z,14.03
2018-06-10T10:45:24.763Z,13.87
2018-06-10T10:47:58.424Z,17.63
2018-06-10T10:50:32.249Z,17.37
2018-06-10T10:53:06.806Z,15.90
2018-06-10T10:55:41.278Z,16.07
2018-06-10T10:58:15.206Z,16.00
2018-06-10T11:00:49.060Z,16.67
2018-06-10T11:03:23.627Z,16.43
2018-06-10T11:05:57.339Z,16.20
2018-06-10T11:08:31.286Z,14.83
2018-06-10T11:11:04.996Z,13.50
2018-06-10T11:13:39.427Z,14.30
2018-06-10T11:16:13.059Z,13.60
2018-06-10T11:18:46.739Z,14.07
2018-06-10T11:21:20.631Z,13.70
2018-06-10T11:23:55.163Z,13.97
2018-06-10T11:26:29.018Z,13.80
2018-06-10T11:29:02.843Z,12.60
2018-06-10T11:31:37.420Z,13.37
2018-06-10T11:34:11.854Z,13.40
2018-06-10T11:36:45.520Z,13.30
2018-06-10T11:39:19.403Z,14.13
2018-06-10T11:41:53.157Z,14.10
2018-06-10T11:44:26.970Z,13.17
2018-06-10T11:47:00.810Z,14.03
2018-06-10T11:49:35.383Z,13.27
2018-06-10T11:52:09.949Z,14.00
2018-06-10T11:54:43.737Z,13.17
2018-06-10T11:57:17.575Z,13.93
2018-06-10T11:59:51.335Z,12.63
2018-06-10T12:02:24.959Z,13.30
2018-06-10T12:04:58.828Z,12.97
2018-06-10T12:07:32.599Z,12.13
2018-06-10T12:10:06.468Z,11.80
2018-06-10T12:12:41.141Z,12.57
2018-06-10T12:15:14.864Z,10.47
2018-06-10T12:17:48.712Z,11.67
2018-06-10T12:20:22.552Z,11.40
2018-06-10T12:22:56.387Z,11.80
2018-06-10T12:25:30.222Z,12.77
2018-06-10T12:28:04.165Z,12.10
2018-06-10T12:30:37.931Z,11.80
2018-06-10T12:33:11.627Z,15.47
2018-06-10T12:35:46.242Z,13.43
2018-06-10T12:38:20.067Z,11.90
2018-06-10T12:40:54.019Z,11.50
2018-06-10T12:43:27.826Z,10.73
2018-06-10T12:46:01.583Z,10.97
2018-06-10T12:48:36.100Z,11.47
2018-06-10T12:51:09.792Z,12.47
2018-06-10T12:53:44.342Z,10.60
2018-06-10T12:56:18.243Z,11.03
2018-06-10T12:58:51.962Z,11.07
2018-06-10T13:01:25.792Z,11.40
2018-06-10T13:03:59.568Z,10.63
2018-06-10T13:06:33.140Z,10.57
2018-06-10T13:09:06.901Z,9.77
2018-06-10T13:11:40.762Z,11.50
2018-06-10T13:14:14.499Z,11.73
2018-06-10T13:16:48.316Z,11.73
2018-06-10T13:19:22.029Z,10.10
2018-06-10T13:21:55.879Z,10.70
2018-06-10T13:24:29.684Z,11.73
2018-06-10T13:27:03.513Z,10.93
2018-06-10T13:29:37.303Z,10.93
2018-06-10T13:32:11.108Z,11.87
2018-06-10T13:34:44.931Z,10.17
2018-06-10T13:37:18.738Z,10.00
2018-06-10T13:39:53.423Z,9.37
2018-06-10T13:42:27.172Z,9.73
2018-06-10T13:45:00.997Z,9.60
2018-06-10T13:47:34.882Z,9.00
2018-06-10T13:50:08.531Z,9.50
2018-06-10T13:52:42.359Z,8.50
2018-06-10T13:55:16.998Z,9.33
2018-06-10T13:57:50.760Z,9.30
2018-06-10T14:00:24.632Z,11.60
2018-06-10T14:02:58.433Z,10.70
2018-06-10T14:05:32.396Z,9.27
2018-06-10T14:08:06.115Z,9.20
2018-06-10T14:10:39.975Z,9.13
2018-06-10T14:13:13.747Z,9.47
2018-06-10T14:15:48.386Z,9.77
2018-06-10T14:18:22.091Z,10.37
2018-06-10T14:20:56.743Z,9.37
2018-06-10T14:23:30.335Z,10.90
2018-06-10T14:26:04.199Z,10.60
2018-06-10T14:28:37.926Z,16.10
2018-06-10T14:31:11.776Z,9.40
2018-06-10T14:33:45.529Z,8.57
2018-06-10T14:36:19.283Z,9.80
2018-06-10T14:38:53.153Z,9.77
2018-06-10T14:41:26.849Z,10.43
2018-06-10T14:44:00.697Z,10.10
2018-06-10T14:46:34.575Z,11.23
2018-06-10T14:49:08.280Z,9.73
2018-06-10T14:51:42.025Z,10.37
2018-06-10T14:54:15.837Z,11.00
2018-06-10T14:56:49.591Z,9.20
2018-06-10T14:59:23.995Z,9.87
2018-06-10T15:01:57.809Z,10.30
2018-06-10T15:04:31.463Z,9.90
2018-06-10T15:07:05.230Z,10.10
2018-06-10T15:09:39.755Z,10.60
2018-06-10T15:12:13.512Z,10.50
2018-06-10T15:14:47.385Z,9.90
2018-06-10T15:17:21.179Z,9.90
2018-06-10T15:19:54.953Z,9.20
2018-06-10T15:22:29.510Z,9.33
2018-06-10T15:25:03.271Z,10.40
2018-06-10T15:27:37.053Z,9.23
2018-06-10T15:30:10.880Z,9.73
2018-06-10T15:32:44.696Z,8.97
2018-06-10T15:35:18.491Z,11.50
2018-06-10T15:37:53.033Z,10.07
2018-06-10T15:40:26.879Z,10.10
2018-06-10T15:43:00.642Z,10.43
2018-06-10T15:45:34.421Z,10.40
2018-06-10T15:48:08.196Z,9.80
2018-06-10T15:50:41.960Z,10.03
2018-06-10T15:53:15.787Z,9.23
2018-06-10T15:55:49.622Z,9.37
2018-06-10T15:58:24.215Z,8.83
2018-06-10T16:00:58.845Z,11.93
2018-06-10T16:03:32.679Z,11.43
2018-06-10T16:08:38.834Z,8.83
2018-06-10T16:11:13.561Z,8.40
2018-06-10T16:13:47.329Z,7.73
2018-06-10T16:16:22.020Z,7.40
2018-06-10T16:18:55.744Z,8.73
2018-06-10T16:21:29.549Z,7.47
2018-06-10T16:24:04.071Z,6.90
2018-06-10T16:26:37.990Z,7.80
2018-06-10T16:29:11.678Z,7.53
2018-06-10T16:31:45.450Z,8.97
2018-06-10T16:34:19.261Z,8.90
2018-06-10T16:36:53.898Z,5.50
2018-06-10T16:39:27.711Z,8.53
2018-06-10T16:42:01.484Z,6.53
2018-06-10T16:44:35.284Z,6.07
2018-06-10T16:47:09.672Z,4.57
2018-06-10T16:49:44.108Z,4.80
2018-06-10T16:52:17.852Z,4.73
2018-06-10T16:54:51.646Z,4.97
2018-06-10T16:57:25.456Z,4.90
2018-06-10T16:59:59.387Z,5.27
2018-06-10T17:02:33.997Z,5.07
2018-06-10T17:05:07.907Z,6.00
2018-06-10T17:07:41.653Z,4.93
2018-06-10T17:10:15.468Z,4.27
2018-06-10T17:12:49.988Z,3.80
2018-06-10T17:15:23.800Z,4.23
2018-06-10T17:17:57.505Z,4.63
2018-06-10T17:20:31.215Z,5.33
2018-06-10T17:23:05.848Z,4.40
2018-06-10T17:25:39.653Z,4.83
2018-06-10T17:28:14.260Z,5.17
2018-06-10T17:30:48.120Z,6.90
2018-06-10T17:33:21.915Z,5.07
2018-06-10T17:35:55.700Z,4.97
2018-06-10T17:38:29.463Z,9.10
2018-06-10T17:41:03.322Z,4.60
2018-06-10T17:43:37.131Z,4.93
2018-06-10T17:46:10.956Z,5.33
2018-06-10T17:48:44.833Z,4.83
2018-06-10T17:51:18.725Z,5.20
2018-06-10T17:53:52.664Z,5.60
2018-06-10T17:56:27.265Z,4.87
2018-06-10T17:59:01.004Z,4.80
2018-06-10T18:01:34.787Z,4.60
2018-06-10T18:04:08.555Z,4.70
2018-06-10T18:06:42.458Z,4.80
2018-06-10T18:09:17.032Z,4.80
2018-06-10T18:11:50.851Z,7.40
2018-06-10T18:14:24.645Z,4.23
2018-06-10T18:16:58.280Z,4.93
2018-06-10T18:19:32.848Z,5.53
2018-06-10T18:22:06.567Z,5.07
2018-06-10T18:24:40.395Z,5.43
2018-06-10T18:27:14.344Z,5.53
2018-06-10T18:29:48.082Z,4.60
2018-06-10T18:32:22.610Z,4.60
2018-06-10T18:34:56.191Z,5.73
2018-06-10T18:37:30.011Z,4.93
2018-06-10T18:40:03.872Z,5.20
2018-06-10T18:42:38.434Z,5.80
2018-06-10T18:45:12.288Z,5.03
2018-06-10T18:47:46.213Z,5.30
2018-06-10T18:50:20.729Z,5.60
2018-06-10T18:52:54.388Z,5.47
2018-06-10T18:55:28.094Z,5.90
2018-06-10T18:58:02.620Z,4.97
2018-06-10T19:00:36.453Z,11.27
2018-06-10T19:03:10.195Z,5.40
2018-06-10T19:05:44.073Z,6.60
2018-06-10T19:08:18.715Z,4.40
2018-06-10T19:10:52.505Z,5.57
2018-06-10T19:13:27.079Z,5.50
2018-06-10T19:16:01.742Z,5.10
2018-06-10T19:18:35.473Z,6.17
2018-06-10T19:21:09.203Z,5.60
2018-06-10T19:23:43.005Z,5.37
2018-06-10T19:26:16.795Z,5.40
2018-06-10T19:28:50.484Z,4.80
2018-06-10T19:31:24.221Z,5.30
2018-06-10T19:33:58.157Z,4.93
2018-06-10T19:36:32.644Z,5.37
2018-06-10T19:39:06.528Z,5.70
2018-06-10T19:41:40.153Z,6.03
2018-06-10T19:44:13.916Z,6.57
2018-06-10T19:46:48.388Z,6.40
2018-06-10T19:49:22.226Z,6.07
2018-06-10T19:51:55.965Z,5.93
2018-06-10T19:54:29.815Z,5.70
2018-06-10T19:57:04.320Z,6.40
2018-06-10T19:59:38.121Z,6.33
2018-06-10T20:02:11.967Z,8.50
2018-06-10T20:04:46.460Z,7.20
2018-06-10T20:07:20.304Z,10.13
2018-06-10T20:09:54.230Z,9.13
2018-06-10T20:12:28.043Z,7.80
2018-06-10T20:15:02.620Z,7.47
2018-06-10T20:17:36.358Z,8.00
2018-06-10T20:20:10.167Z,10.43
2018-06-10T20:22:44.635Z,8.57
2018-06-10T20:25:18.257Z,8.87
2018-06-10T20:27:52.888Z,9.43
2018-06-10T20:30:26.766Z,7.30
2018-06-10T20:33:00.544Z,7.33
2018-06-10T20:35:34.265Z,8.20
2018-06-10T20:38:08.053Z,8.47
2018-06-10T20:40:41.867Z,8.77
2018-06-10T20:43:15.721Z,6.93
2018-06-10T20:45:49.595Z,7.03
2018-06-10T20:48:23.447Z,7.00
2018-06-10T20:50:58.004Z,6.13
2018-06-10T20:53:32.752Z,6.30
2018-06-10T20:56:06.532Z,6.90
2018-06-10T20:58:41.106Z,7.53
2018-06-10T21:01:14.769Z,6.77
2018-06-10T21:03:48.500Z,8.00
2018-06-10T21:06:22.345Z,7.47
2018-06-10T21:08:56.147Z,7.40
2018-06-10T21:11:29.920Z,7.20
2018-06-10T21:14:03.666Z,7.33
2018-06-10T21:16:37.463Z,6.80
2018-06-10T21:19:11.227Z,6.67
2018-06-10T21:21:45.061Z,6.53
2018-06-10T21:24:18.661Z,7.63
2018-06-10T21:26:52.291Z,8.70
2018-06-10T21:29:26.039Z,7.20
2018-06-10T21:31:59.937Z,6.83
2018-06-10T21:34:33.692Z,10.70
2018-06-10T21:37:08.214Z,6.57
2018-06-10T21:39:42.757Z,6.70
2018-06-10T21:42:16.513Z,6.93
2018-06-10T21:44:50.412Z,6.53
2018-06-10T21:47:24.056Z,6.90
2018-06-10T21:49:57.839Z,6.77
2018-06-10T21:52:32.355Z,7.20
2018-06-10T21:55:06.082Z,7.30
2018-06-10T21:57:39.868Z,7.43
2018-06-10T22:00:13.571Z,7.80
2018-06-10T22:02:47.378Z,6.20
2018-06-10T22:05:21.692Z,6.63
2018-06-10T22:07:55.403Z,6.20
2018-06-10T22:10:29.925Z,8.07
2018-06-10T22:13:04.460Z,7.70
2018-06-10T22:15:38.147Z,7.93
2018-06-10T22:18:11.879Z,7.13
2018-06-10T22:20:45.689Z,7.40
2018-06-10T22:23:19.483Z,7.33
2018-06-10T22:25:53.240Z,8.53
2018-06-10T22:28:27.679Z,7.63
2018-06-10T22:31:01.448Z,7.87
2018-06-10T22:33:35.226Z,8.23
2018-06-10T22:36:09.817Z,8.10
2018-06-10T22:38:44.337Z,8.02
2018-06-10T22:41:18.815Z,7.53
2018-06-10T22:43:52.655Z,7.70
2018-06-10T22:46:26.387Z,8.30
2018-06-10T22:49:00.028Z,7.12
2018-06-10T22:51:33.725Z,7.12
2018-06-10T22:54:10.264Z,7.80
2018-06-10T22:56:43.915Z,7.93
2018-06-10T22:59:17.728Z,7.82
2018-06-10T23:01:51.541Z,7.57
2018-06-10T23:04:25.157Z,7.62
2018-06-10T23:06:59.069Z,8.02
2018-06-10T23:09:32.712Z,7.87
2018-06-10T23:12:07.329Z,7.62
2018-06-10T23:14:41.048Z,7.75
2018-06-10T23:17:15.577Z,7.40
2018-06-10T23:19:49.280Z,8.10
2018-06-10T23:22:22.913Z,8.00
2018-06-10T23:24:56.807Z,7.53
2018-06-10T23:27:31.365Z,7.47
2018-06-10T23:30:05.964Z,8.48
2018-06-10T23:32:40.516Z,8.10
2018-06-10T23:35:14.152Z,8.38
2018-06-10T23:37:47.946Z,9.77
2018-06-10T23:40:22.483Z,9.95
2018-06-10T23:42:56.261Z,8.57
2018-06-10T23:45:30.700Z,8.30
2018-06-10T23:48:04.490Z,7.93
2018-06-10T23:50:38.330Z,7.70
2018-06-10T23:53:11.895Z,8.93
2018-06-10T23:55:46.531Z,7.75
2018-06-10T23:58:20.328Z,8.57
